sim
Sign-in with your pilot id or email,
or register
Callsign
Passwort

Schedule Details

Flight Number: RYR7068 (1)
Departure: Rome Ciampino Airport (LIRA) at 12:20
Arrival: Thessaloniki International Airport (LGTS) at 14:05
Route: Ryanair Passenger Schedule. Enter filed route here before submitting Pirep.

Weather Information
Getting current METAR information for LIRA 252120Z VRB02KT CAVOK 17/09 Q1016
Getting current METAR information for LGTS 252120Z 00000KT CAVOK 15/12 Q1020 NOSIG

Schedule Frequency

Route Map